Time;durP1;ratioP1;P1;durP2;ratioP2;P2;SDS_P1;SDS_P2;PMS_P1;PMS_P2;Temp;Humidity;BMP_temperature;BMP_pressure;BME280_temperature;BME280_humidity;BME280_pressure;Samples;Min_cycle;Max_cycle;Signal;HPM_P1;HPM_P2
2024/01/10 00:02:25;;;;;;;16.55;10.20;;;;;;;;;;5102057;28;20138;-65
2024/01/10 00:04:51;;;;;;;16.60;10.18;;;;;;;;;;5099179;28;20221;-65
2024/01/10 00:07:18;;;;;;;18.95;10.27;;;;;;;;;;5086086;28;20054;-65
2024/01/10 00:09:45;;;;;;;18.27;10.23;;;;;;;;;;5085813;28;20176;-65
2024/01/10 00:12:12;;;;;;;17.50;10.73;;;;;;;;;;5099741;28;20043;-65
2024/01/10 00:14:38;;;;;;;17.25;9.73;;;;;;;;;;5079472;28;20534;-65
2024/01/10 00:17:04;;;;;;;17.95;10.70;;;;;;;;;;5097958;28;20080;-65
2024/01/10 00:19:31;;;;;;;17.33;10.65;;;;;;;;;;5090736;28;20055;-65
2024/01/10 00:21:57;;;;;;;20.98;11.15;;;;;;;;;;5090999;28;20073;-65
2024/01/10 00:24:23;;;;;;;20.42;11.30;;;;;;;;;;5098131;28;20146;-65
2024/01/10 00:26:49;;;;;;;22.00;12.77;;;;;;;;;;5086550;28;20048;-65
2024/01/10 00:29:15;;;;;;;19.35;11.27;;;;;;;;;;5076206;28;20398;-65
2024/01/10 00:31:41;;;;;;;19.25;11.90;;;;;;;;;;5093469;27;20055;-65
2024/01/10 00:34:08;;;;;;;19.13;11.80;;;;;;;;;;5101094;27;20514;-65
2024/01/10 00:36:34;;;;;;;18.77;11.35;;;;;;;;;;5099329;27;21338;-65
2024/01/10 00:39:00;;;;;;;20.88;11.85;;;;;;;;;;5083209;27;20043;-65
2024/01/10 00:41:26;;;;;;;18.73;11.40;;;;;;;;;;5097476;27;21279;-65
2024/01/10 00:43:53;;;;;;;19.10;11.50;;;;;;;;;;5097124;27;20043;-65
2024/01/10 00:46:19;;;;;;;21.83;12.52;;;;;;;;;;5115862;27;20062;-65
2024/01/10 00:48:46;;;;;;;22.70;12.73;;;;;;;;;;5118034;27;20123;-65
2024/01/10 00:51:12;;;;;;;20.13;12.38;;;;;;;;;;5118405;27;20043;-65
2024/01/10 00:53:38;;;;;;;21.35;12.05;;;;;;;;;;5118039;27;20285;-65
2024/01/10 00:56:05;;;;;;;24.20;12.93;;;;;;;;;;5118121;27;20126;-65
2024/01/10 00:58:31;;;;;;;23.00;12.45;;;;;;;;;;5116730;27;20495;-65
2024/01/10 01:00:57;;;;;;;21.70;13.10;;;;;;;;;;5094744;27;20115;-65
2024/01/10 01:03:23;;;;;;;20.45;12.23;;;;;;;;;;5116568;27;20039;-65
2024/01/10 01:05:50;;;;;;;22.65;14.10;;;;;;;;;;5119876;27;20480;-65
2024/01/10 01:08:16;;;;;;;23.88;12.93;;;;;;;;;;5097588;27;20180;-65
2024/01/10 01:10:42;;;;;;;22.98;12.90;;;;;;;;;;5097699;27;20039;-65
2024/01/10 01:13:08;;;;;;;22.02;13.07;;;;;;;;;;5096995;27;20049;-65
2024/01/10 01:15:34;;;;;;;21.73;13.77;;;;;;;;;;5098244;27;20043;-64
2024/01/10 01:18:00;;;;;;;24.75;14.05;;;;;;;;;;5100982;27;20065;-65
2024/01/10 01:20:27;;;;;;;23.95;14.18;;;;;;;;;;5113881;27;20129;-65
2024/01/10 01:22:53;;;;;;;27.85;13.85;;;;;;;;;;5118529;27;20050;-65
2024/01/10 01:25:19;;;;;;;23.58;13.98;;;;;;;;;;5099024;27;20043;-65
2024/01/10 01:27:45;;;;;;;25.50;14.77;;;;;;;;;;5117627;27;20047;-65
2024/01/10 01:30:12;;;;;;;22.80;14.73;;;;;;;;;;5095390;28;20084;-65
2024/01/10 01:32:38;;;;;;;21.92;14.20;;;;;;;;;;5098575;28;20052;-65
2024/01/10 01:35:04;;;;;;;22.35;14.18;;;;;;;;;;5081533;28;20074;-65
2024/01/10 01:37:30;;;;;;;26.67;16.48;;;;;;;;;;5081974;28;20066;-65
2024/01/10 01:39:57;;;;;;;24.73;14.25;;;;;;;;;;5081494;28;20047;-65
2024/01/10 01:42:23;;;;;;;23.30;13.93;;;;;;;;;;5098498;28;20051;-65
2024/01/10 01:44:49;;;;;;;24.42;14.63;;;;;;;;;;5098145;28;20439;-65
2024/01/10 01:47:16;;;;;;;25.35;15.27;;;;;;;;;;5080367;28;20384;-65
2024/01/10 01:49:43;;;;;;;26.63;16.00;;;;;;;;;;5096578;28;20050;-65
2024/01/10 01:52:09;;;;;;;26.05;15.95;;;;;;;;;;5082004;28;20051;-64
2024/01/10 01:54:35;;;;;;;26.33;15.93;;;;;;;;;;5078528;28;20054;-65
2024/01/10 01:57:02;;;;;;;28.38;16.45;;;;;;;;;;5079694;28;20737;-64
2024/01/10 01:59:29;;;;;;;26.42;15.75;;;;;;;;;;5103106;28;20056;-65
2024/01/10 02:01:56;;;;;;;24.90;16.17;;;;;;;;;;5079672;28;20043;-65
2024/01/10 02:04:23;;;;;;;26.27;16.58;;;;;;;;;;5097323;28;20403;-65
2024/01/10 02:06:49;;;;;;;32.22;18.13;;;;;;;;;;5081254;28;20105;-65
2024/01/10 02:09:15;;;;;;;32.15;19.33;;;;;;;;;;5083808;28;20523;-64
2024/01/10 02:11:41;;;;;;;30.00;18.38;;;;;;;;;;5084896;28;20463;-65
2024/01/10 02:14:08;;;;;;;30.40;17.85;;;;;;;;;;5102716;28;20039;-64
2024/01/10 02:16:34;;;;;;;27.08;17.17;;;;;;;;;;5100804;28;20394;-65
2024/01/10 02:19:01;;;;;;;28.42;17.95;;;;;;;;;;5099286;28;20620;-64
2024/01/10 02:21:27;;;;;;;28.70;17.70;;;;;;;;;;5102965;28;20047;-65
2024/01/10 02:23:53;;;;;;;30.75;18.35;;;;;;;;;;5078715;28;20371;-65
2024/01/10 02:26:19;;;;;;;31.83;18.77;;;;;;;;;;5094060;28;20154;-64
2024/01/10 02:28:45;;;;;;;33.75;18.92;;;;;;;;;;5099738;28;20471;-64
2024/01/10 02:31:12;;;;;;;30.58;18.50;;;;;;;;;;5108034;28;20088;-64
2024/01/10 02:33:38;;;;;;;29.73;18.35;;;;;;;;;;5103712;28;20052;-65
2024/01/10 02:36:05;;;;;;;29.70;18.13;;;;;;;;;;5102852;28;20048;-65
2024/01/10 02:38:31;;;;;;;29.02;17.88;;;;;;;;;;5118973;28;20173;-65
2024/01/10 02:40:58;;;;;;;29.40;17.77;;;;;;;;;;5101732;28;20428;-64
2024/01/10 02:43:24;;;;;;;29.48;17.40;;;;;;;;;;5118642;28;20057;-64
2024/01/10 02:45:50;;;;;;;31.83;18.23;;;;;;;;;;5114413;27;20042;-64
2024/01/10 02:48:16;;;;;;;30.75;17.80;;;;;;;;;;5119583;28;20039;-64
2024/01/10 02:50:42;;;;;;;32.20;18.77;;;;;;;;;;5097506;28;20608;-65
2024/01/10 02:53:09;;;;;;;29.88;17.60;;;;;;;;;;5093331;28;20044;-65
2024/01/10 02:55:35;;;;;;;28.63;17.52;;;;;;;;;;5116978;28;20118;-64
2024/01/10 02:58:01;;;;;;;29.10;16.77;;;;;;;;;;5099884;28;20049;-64
2024/01/10 03:00:27;;;;;;;30.40;17.75;;;;;;;;;;5120642;28;20119;-65
2024/01/10 03:02:53;;;;;;;33.58;19.80;;;;;;;;;;5124753;27;20035;-64
2024/01/10 03:05:20;;;;;;;26.70;17.05;;;;;;;;;;5125518;27;20042;-65
2024/01/10 03:07:46;;;;;;;30.65;18.38;;;;;;;;;;5114511;27;20040;-64
2024/01/10 03:10:12;;;;;;;28.60;18.15;;;;;;;;;;5092412;28;20765;-64
2024/01/10 03:12:38;;;;;;;32.15;19.00;;;;;;;;;;5099079;27;20144;-64
2024/01/10 03:15:06;;;;;;;30.48;19.02;;;;;;;;;;5102258;27;20344;-64
2024/01/10 03:17:33;;;;;;;31.90;18.05;;;;;;;;;;5103052;27;20054;-65
2024/01/10 03:20:00;;;;;;;32.17;18.55;;;;;;;;;;5103720;27;20051;-65
2024/01/10 03:22:26;;;;;;;32.05;18.67;;;;;;;;;;5103122;27;20202;-64
2024/01/10 03:24:52;;;;;;;29.15;17.08;;;;;;;;;;5102234;27;20174;-64
2024/01/10 03:27:18;;;;;;;34.03;18.17;;;;;;;;;;5101553;27;20078;-64
2024/01/10 03:29:44;;;;;;;30.52;17.05;;;;;;;;;;5098125;27;20100;-64
2024/01/10 03:32:10;;;;;;;31.65;18.90;;;;;;;;;;5118056;27;20038;-64
2024/01/10 03:34:37;;;;;;;32.17;17.88;;;;;;;;;;5099550;27;20087;-64
2024/01/10 03:37:03;;;;;;;34.33;17.58;;;;;;;;;;5100958;27;20100;-64
2024/01/10 03:39:30;;;;;;;27.08;17.02;;;;;;;;;;5098175;27;20047;-64
2024/01/10 03:41:56;;;;;;;24.77;15.00;;;;;;;;;;5114703;27;20051;-64
2024/01/10 03:44:23;;;;;;;26.15;15.55;;;;;;;;;;5099892;27;20047;-64
2024/01/10 03:46:49;;;;;;;26.80;16.05;;;;;;;;;;5099672;27;20515;-64
2024/01/10 03:49:15;;;;;;;28.10;16.63;;;;;;;;;;5121375;27;20101;-64
2024/01/10 03:51:42;;;;;;;27.45;16.30;;;;;;;;;;5097880;27;20093;-64
2024/01/10 03:54:08;;;;;;;25.23;14.90;;;;;;;;;;5118227;27;20058;-64
2024/01/10 03:56:34;;;;;;;24.80;14.70;;;;;;;;;;5102488;27;20126;-64
2024/01/10 03:59:01;;;;;;;23.40;15.05;;;;;;;;;;5099800;27;20439;-64
2024/01/10 04:01:28;;;;;;;24.70;15.27;;;;;;;;;;5095289;27;20089;-64
2024/01/10 04:03:54;;;;;;;24.30;14.50;;;;;;;;;;5121464;27;20039;-64
2024/01/10 04:06:20;;;;;;;24.00;14.80;;;;;;;;;;5117826;27;20100;-64
2024/01/10 04:08:46;;;;;;;25.70;14.02;;;;;;;;;;5118430;27;20111;-64
2024/01/10 04:11:12;;;;;;;26.30;14.23;;;;;;;;;;5099544;27;20043;-64
2024/01/10 04:13:39;;;;;;;23.80;14.02;;;;;;;;;;5117479;27;20047;-64
2024/01/10 04:16:05;;;;;;;24.65;14.13;;;;;;;;;;5115995;27;20035;-64
2024/01/10 04:18:31;;;;;;;23.20;14.05;;;;;;;;;;5098379;27;20404;-64
2024/01/10 04:20:57;;;;;;;26.15;14.10;;;;;;;;;;5119616;27;20051;-64
2024/01/10 04:23:23;;;;;;;24.83;13.60;;;;;;;;;;5108715;27;20166;-64
2024/01/10 04:25:49;;;;;;;25.17;15.50;;;;;;;;;;5099713;27;20039;-64
2024/01/10 04:28:16;;;;;;;19.88;12.38;;;;;;;;;;5100626;27;20070;-64
2024/01/10 04:30:42;;;;;;;24.38;13.70;;;;;;;;;;5101161;27;20051;-64
2024/01/10 04:33:08;;;;;;;22.83;13.68;;;;;;;;;;5106227;27;20411;-64
2024/01/10 04:35:34;;;;;;;27.70;14.02;;;;;;;;;;5097546;27;20044;-64
2024/01/10 04:38:00;;;;;;;23.10;13.68;;;;;;;;;;5097245;27;20549;-64
2024/01/10 04:40:26;;;;;;;21.17;13.30;;;;;;;;;;5119265;27;20058;-64
2024/01/10 04:42:53;;;;;;;24.08;13.95;;;;;;;;;;5117880;27;20050;-64
2024/01/10 04:45:19;;;;;;;25.50;14.43;;;;;;;;;;5119251;27;20441;-64
2024/01/10 04:47:45;;;;;;;25.05;14.57;;;;;;;;;;5116058;27;20119;-64
2024/01/10 04:50:11;;;;;;;21.58;13.65;;;;;;;;;;5109152;27;20114;-64
2024/01/10 04:52:38;;;;;;;25.73;14.50;;;;;;;;;;5096487;27;20931;-64
2024/01/10 04:55:05;;;;;;;23.60;14.35;;;;;;;;;;5117528;27;20473;-64
2024/01/10 04:57:32;;;;;;;23.08;14.27;;;;;;;;;;5081131;27;20047;-64
2024/01/10 04:59:58;;;;;;;24.75;14.05;;;;;;;;;;5119500;27;20514;-64
2024/01/10 05:02:24;;;;;;;24.40;14.52;;;;;;;;;;5116388;27;20435;-64
2024/01/10 05:04:50;;;;;;;25.25;14.93;;;;;;;;;;5096414;27;20519;-64
2024/01/10 05:07:17;;;;;;;26.30;14.77;;;;;;;;;;5119344;27;20768;-64
2024/01/10 05:09:43;;;;;;;24.85;14.98;;;;;;;;;;5118935;27;20130;-64
2024/01/10 05:12:09;;;;;;;25.40;14.70;;;;;;;;;;5117991;27;20047;-64
2024/01/10 05:14:35;;;;;;;25.25;14.30;;;;;;;;;;5100075;27;20054;-64
2024/01/10 05:17:03;;;;;;;23.40;14.93;;;;;;;;;;5097402;27;20043;-64
2024/01/10 05:19:29;;;;;;;23.13;14.35;;;;;;;;;;5096881;27;20058;-64
2024/01/10 05:21:56;;;;;;;23.95;14.45;;;;;;;;;;5081235;27;20047;-64
2024/01/10 05:24:22;;;;;;;28.17;16.17;;;;;;;;;;5120456;27;20158;-64
2024/01/10 05:26:51;;;;;;;26.42;15.07;;;;;;;;;;5096268;27;20043;-64
2024/01/10 05:29:19;;;;;;;27.25;15.80;;;;;;;;;;5096385;27;20467;-64
2024/01/10 05:31:46;;;;;;;27.00;15.52;;;;;;;;;;5096299;27;20126;-64
2024/01/10 05:34:12;;;;;;;26.13;16.08;;;;;;;;;;5111783;27;20111;-64
2024/01/10 05:36:39;;;;;;;27.95;15.27;;;;;;;;;;5099783;27;20479;-64
2024/01/10 05:39:05;;;;;;;26.25;15.77;;;;;;;;;;5096833;27;20051;-64
2024/01/10 05:41:31;;;;;;;25.98;14.10;;;;;;;;;;5096385;27;20368;-64
2024/01/10 05:43:57;;;;;;;25.20;15.23;;;;;;;;;;5117093;27;20126;-64
2024/01/10 05:46:23;;;;;;;26.30;16.35;;;;;;;;;;5095810;27;20118;-64
2024/01/10 05:48:49;;;;;;;24.88;15.93;;;;;;;;;;5119040;27;20093;-64
2024/01/10 05:51:16;;;;;;;25.50;15.23;;;;;;;;;;5117824;27;20047;-64
2024/01/10 05:53:42;;;;;;;28.35;15.30;;;;;;;;;;5098755;27;20519;-64
2024/01/10 05:56:08;;;;;;;24.95;16.10;;;;;;;;;;5096495;27;20080;-64
2024/01/10 05:58:35;;;;;;;27.70;15.70;;;;;;;;;;5114119;27;20395;-64
2024/01/10 06:01:02;;;;;;;27.95;16.63;;;;;;;;;;5117312;27;20140;-64
2024/01/10 06:03:28;;;;;;;29.98;17.58;;;;;;;;;;5115637;27;20054;-64
2024/01/10 06:05:54;;;;;;;28.38;16.75;;;;;;;;;;5123801;27;20109;-64
2024/01/10 06:08:22;;;;;;;23.20;15.10;;;;;;;;;;5121233;27;20050;-65
2024/01/10 06:10:48;;;;;;;28.60;15.93;;;;;;;;;;5124205;27;20047;-64
2024/01/10 06:13:14;;;;;;;26.55;16.15;;;;;;;;;;5097120;27;20050;-64
2024/01/10 06:15:41;;;;;;;28.08;16.02;;;;;;;;;;5116539;27;20435;-64
2024/01/10 06:18:07;;;;;;;27.25;16.40;;;;;;;;;;5116280;28;20122;-64
2024/01/10 06:20:35;;;;;;;28.05;18.27;;;;;;;;;;5115448;28;20111;-64
2024/01/10 06:23:01;;;;;;;26.95;17.73;;;;;;;;;;5091484;28;20039;-64
2024/01/10 06:25:27;;;;;;;27.75;17.20;;;;;;;;;;5117232;28;20050;-64
2024/01/10 06:27:54;;;;;;;29.00;17.33;;;;;;;;;;5120871;28;20055;-64
2024/01/10 06:30:20;;;;;;;28.52;18.75;;;;;;;;;;5114066;28;20047;-65
2024/01/10 06:32:46;;;;;;;30.52;18.35;;;;;;;;;;5117762;28;20055;-64
2024/01/10 06:35:12;;;;;;;31.35;18.85;;;;;;;;;;5096997;28;20039;-64
2024/01/10 06:37:39;;;;;;;28.50;17.92;;;;;;;;;;5118117;27;20039;-64
2024/01/10 06:40:05;;;;;;;29.17;17.75;;;;;;;;;;5098154;27;20482;-65
2024/01/10 06:42:32;;;;;;;29.85;18.17;;;;;;;;;;5096646;27;20126;-64
2024/01/10 06:44:58;;;;;;;31.05;18.15;;;;;;;;;;5099084;27;20382;-73
2024/01/10 06:47:24;;;;;;;32.55;19.30;;;;;;;;;;5099060;27;20126;-65
2024/01/10 06:49:50;;;;;;;31.60;18.85;;;;;;;;;;5115203;27;20075;-64
2024/01/10 06:52:16;;;;;;;31.10;19.63;;;;;;;;;;5116570;27;20044;-65
2024/01/10 06:54:43;;;;;;;29.90;19.10;;;;;;;;;;5118024;27;20401;-64
2024/01/10 06:57:09;;;;;;;29.83;18.38;;;;;;;;;;5103088;27;20518;-68
2024/01/10 06:59:35;;;;;;;30.23;19.42;;;;;;;;;;5101956;27;20043;-65
2024/01/10 07:02:01;;;;;;;32.92;18.38;;;;;;;;;;5125143;27;20171;-64
2024/01/10 07:04:28;;;;;;;29.98;18.90;;;;;;;;;;5102730;27;20040;-65
2024/01/10 07:06:54;;;;;;;28.83;18.52;;;;;;;;;;5124639;27;20060;-64
2024/01/10 07:09:20;;;;;;;31.70;19.50;;;;;;;;;;5122479;27;20456;-64
2024/01/10 07:11:47;;;;;;;31.90;18.85;;;;;;;;;;5124250;27;20070;-64
2024/01/10 07:14:14;;;;;;;30.88;17.90;;;;;;;;;;5099536;28;20070;-76
2024/01/10 07:16:42;;;;;;;34.28;17.25;;;;;;;;;;5103223;27;20482;-64
2024/01/10 07:19:13;;;;;;;29.42;18.67;;;;;;;;;;5121974;27;20039;-64
2024/01/10 07:21:40;;;;;;;28.85;17.17;;;;;;;;;;5124081;27;20069;-64
2024/01/10 07:24:08;;;;;;;28.95;17.77;;;;;;;;;;5124946;27;20122;-64
2024/01/10 07:26:35;;;;;;;28.77;17.60;;;;;;;;;;5118254;27;20049;-64
2024/01/10 07:29:02;;;;;;;31.05;17.75;;;;;;;;;;5098545;27;20118;-65
2024/01/10 07:31:29;;;;;;;29.15;17.67;;;;;;;;;;5109992;27;20095;-64
2024/01/10 07:33:57;;;;;;;28.73;16.60;;;;;;;;;;5114318;27;20490;-64
2024/01/10 07:36:26;;;;;;;27.75;17.63;;;;;;;;;;5118688;27;20034;-65
2024/01/10 07:38:53;;;;;;;29.50;16.98;;;;;;;;;;5085920;27;20050;-65
2024/01/10 07:41:19;;;;;;;31.90;17.33;;;;;;;;;;5105069;27;20085;-64
2024/01/10 07:43:45;;;;;;;28.60;18.40;;;;;;;;;;5105738;27;20475;-65
2024/01/10 07:46:11;;;;;;;27.88;17.55;;;;;;;;;;5122585;27;20058;-65
2024/01/10 07:48:37;;;;;;;31.15;18.08;;;;;;;;;;5107997;27;20039;-64
2024/01/10 07:51:04;;;;;;;27.13;17.50;;;;;;;;;;5105574;28;20046;-65
2024/01/10 07:53:30;;;;;;;27.77;17.80;;;;;;;;;;5107418;27;20070;-64
2024/01/10 07:55:57;;;;;;;30.50;18.17;;;;;;;;;;5107323;27;20036;-65
2024/01/10 07:58:23;;;;;;;31.63;16.65;;;;;;;;;;5107924;27;20130;-65
2024/01/10 08:00:49;;;;;;;29.00;17.58;;;;;;;;;;5122338;27;20043;-65
2024/01/10 08:03:16;;;;;;;30.17;17.73;;;;;;;;;;5109142;27;20046;-64
2024/01/10 08:05:42;;;;;;;26.60;16.58;;;;;;;;;;5127419;27;20043;-65
2024/01/10 08:08:09;;;;;;;29.90;18.60;;;;;;;;;;5121238;27;20039;-64
2024/01/10 08:10:35;;;;;;;29.92;18.48;;;;;;;;;;5111632;27;20055;-65
2024/01/10 08:13:01;;;;;;;28.70;17.77;;;;;;;;;;5104922;27;20031;-64
2024/01/10 08:15:30;;;;;;;29.42;18.30;;;;;;;;;;5111637;27;20047;-65
2024/01/10 08:17:56;;;;;;;28.23;16.25;;;;;;;;;;5115329;27;20051;-64
2024/01/10 08:20:22;;;;;;;26.88;16.80;;;;;;;;;;5101529;27;20039;-65
2024/01/10 08:22:48;;;;;;;26.55;16.52;;;;;;;;;;5118751;27;20126;-65
2024/01/10 08:25:15;;;;;;;26.13;15.88;;;;;;;;;;5115359;27;20046;-65
2024/01/10 08:27:42;;;;;;;25.77;15.63;;;;;;;;;;5117005;27;20123;-64
2024/01/10 08:30:09;;;;;;;27.58;16.42;;;;;;;;;;5121359;27;20058;-65
2024/01/10 08:32:36;;;;;;;26.40;15.48;;;;;;;;;;5106212;27;20043;-65
2024/01/10 08:35:04;;;;;;;27.08;16.10;;;;;;;;;;5119704;27;20100;-65
2024/01/10 08:37:31;;;;;;;24.48;14.82;;;;;;;;;;5102091;27;20055;-65
2024/01/10 08:39:58;;;;;;;27.95;15.88;;;;;;;;;;5105856;27;20058;-65
2024/01/10 08:42:25;;;;;;;25.52;15.45;;;;;;;;;;5104044;27;20062;-65
2024/01/10 08:44:51;;;;;;;25.85;14.55;;;;;;;;;;5107143;27;20055;-65
2024/01/10 08:47:17;;;;;;;25.70;15.70;;;;;;;;;;5116822;27;20047;-65
2024/01/10 08:49:44;;;;;;;29.00;14.80;;;;;;;;;;5117917;27;20095;-65
2024/01/10 08:52:10;;;;;;;23.73;14.05;;;;;;;;;;5107945;27;20456;-65
2024/01/10 08:54:36;;;;;;;23.60;12.93;;;;;;;;;;5107706;27;20039;-65
2024/01/10 08:57:03;;;;;;;23.13;13.40;;;;;;;;;;5104268;27;20159;-65
2024/01/10 08:59:29;;;;;;;24.42;14.02;;;;;;;;;;5103617;28;20538;-65
2024/01/10 09:01:55;;;;;;;23.33;12.77;;;;;;;;;;5105193;27;20048;-65
2024/01/10 09:04:22;;;;;;;23.23;14.13;;;;;;;;;;5110637;27;20500;-65
2024/01/10 09:06:48;;;;;;;26.45;14.40;;;;;;;;;;5115930;27;20035;-65
2024/01/10 09:09:14;;;;;;;24.02;13.52;;;;;;;;;;5112004;27;20373;-65
2024/01/10 09:11:40;;;;;;;23.58;13.43;;;;;;;;;;5113981;27;20122;-65
2024/01/10 09:14:08;;;;;;;23.27;12.65;;;;;;;;;;5103288;27;20047;-65
2024/01/10 09:16:34;;;;;;;22.73;12.88;;;;;;;;;;5103626;27;20375;-65
2024/01/10 09:19:01;;;;;;;24.10;13.25;;;;;;;;;;5098782;28;22104;-65
2024/01/10 09:21:27;;;;;;;21.77;12.95;;;;;;;;;;5106868;27;20044;-65
2024/01/10 09:23:53;;;;;;;23.15;12.77;;;;;;;;;;5116127;27;20051;-65
2024/01/10 09:26:19;;;;;;;21.67;11.90;;;;;;;;;;5099578;27;20050;-65
2024/01/10 09:28:46;;;;;;;22.98;12.55;;;;;;;;;;5105110;27;20107;-65
2024/01/10 09:31:12;;;;;;;22.80;11.30;;;;;;;;;;5106360;27;20154;-65
2024/01/10 09:33:38;;;;;;;23.58;12.10;;;;;;;;;;5108069;27;20443;-65
2024/01/10 09:36:04;;;;;;;24.23;12.10;;;;;;;;;;5116397;27;20118;-65
2024/01/10 09:38:35;;;;;;;23.63;12.68;;;;;;;;;;5104617;27;20031;-65
2024/01/10 09:41:02;;;;;;;25.05;12.52;;;;;;;;;;5106136;27;20039;-65
2024/01/10 09:43:30;;;;;;;24.52;12.05;;;;;;;;;;5122613;27;20035;-64
2024/01/10 09:45:58;;;;;;;23.42;11.68;;;;;;;;;;5114378;27;20418;-65
2024/01/10 09:48:24;;;;;;;22.48;11.52;;;;;;;;;;5101776;27;20085;-65
2024/01/10 09:50:51;;;;;;;26.33;11.77;;;;;;;;;;5121646;27;20043;-65
2024/01/10 09:53:24;;;;;;;21.55;10.60;;;;;;;;;;5102992;27;20482;-65
2024/01/10 09:55:50;;;;;;;22.80;12.10;;;;;;;;;;5124949;27;20039;-65
2024/01/10 09:58:16;;;;;;;22.25;10.70;;;;;;;;;;5102454;27;20444;-65
2024/01/10 10:00:42;;;;;;;21.42;10.40;;;;;;;;;;5124412;27;20039;-65
2024/01/10 10:03:12;;;;;;;23.05;10.80;;;;;;;;;;5123392;27;20118;-65
2024/01/10 10:05:38;;;;;;;17.27;9.32;;;;;;;;;;5100364;27;20039;-65
2024/01/10 10:08:07;;;;;;;22.92;10.73;;;;;;;;;;5116871;27;20081;-66
2024/01/10 10:10:33;;;;;;;22.85;10.05;;;;;;;;;;5120170;27;20043;-65
2024/01/10 10:13:00;;;;;;;22.10;10.75;;;;;;;;;;5115968;27;21880;-65
2024/01/10 10:15:26;;;;;;;19.42;9.65;;;;;;;;;;5116373;27;20039;-65
2024/01/10 10:17:53;;;;;;;24.15;10.45;;;;;;;;;;5099710;28;20044;-65
2024/01/10 10:20:24;;;;;;;21.45;9.65;;;;;;;;;;5119795;28;20047;-65
2024/01/10 10:23:00;;;;;;;21.40;9.70;;;;;;;;;;5098868;28;20052;-65
2024/01/10 10:25:27;;;;;;;24.52;9.95;;;;;;;;;;5118958;28;20043;-65
2024/01/10 10:27:53;;;;;;;22.00;9.68;;;;;;;;;;5103112;28;20529;-65
2024/01/10 10:30:20;;;;;;;22.38;9.30;;;;;;;;;;5098789;28;20573;-65
2024/01/10 10:32:46;;;;;;;21.98;9.98;;;;;;;;;;5101548;28;20200;-65
2024/01/10 10:35:12;;;;;;;19.75;9.15;;;;;;;;;;5100847;28;20088;-65
2024/01/10 10:37:38;;;;;;;20.73;8.27;;;;;;;;;;5098602;28;20044;-65
2024/01/10 10:40:06;;;;;;;20.45;9.00;;;;;;;;;;5117668;28;20185;-65
2024/01/10 10:42:32;;;;;;;23.65;9.05;;;;;;;;;;5114319;28;20403;-65
2024/01/10 10:45:02;;;;;;;18.98;8.52;;;;;;;;;;5100049;28;20054;-65
2024/01/10 10:47:32;;;;;;;20.05;9.23;;;;;;;;;;5095837;28;20048;-65
2024/01/10 10:50:00;;;;;;;18.08;8.68;;;;;;;;;;5101914;28;20079;-65
2024/01/10 10:52:26;;;;;;;18.52;8.35;;;;;;;;;;5101549;27;20078;-65
2024/01/10 10:54:57;;;;;;;20.98;9.77;;;;;;;;;;5118067;28;20048;-65
2024/01/10 10:57:25;;;;;;;20.42;8.98;;;;;;;;;;5080937;28;20127;-65
2024/01/10 10:59:52;;;;;;;19.95;9.57;;;;;;;;;;5077518;28;20377;-65
2024/01/10 11:02:22;;;;;;;20.63;9.25;;;;;;;;;;5118231;28;20071;-65
2024/01/10 11:04:49;;;;;;;17.02;8.50;;;;;;;;;;5118030;27;20054;-65
2024/01/10 11:07:15;;;;;;;20.98;9.00;;;;;;;;;;5120779;28;20078;-65
2024/01/10 11:09:43;;;;;;;21.63;9.18;;;;;;;;;;5102090;28;20145;-65
2024/01/10 11:12:30;;;;;;;19.08;8.45;;;;;;;;;;5120893;28;20054;-65
2024/01/10 11:14:57;;;;;;;18.85;8.50;;;;;;;;;;5101898;28;20142;-65
2024/01/10 11:17:36;;;;;;;20.45;9.70;;;;;;;;;;5098005;28;20036;-65
2024/01/10 11:20:11;;;;;;;16.70;8.15;;;;;;;;;;5114976;28;20470;-65
2024/01/10 11:22:47;;;;;;;20.27;8.40;;;;;;;;;;5122964;27;20087;-64
2024/01/10 11:25:14;;;;;;;19.52;9.10;;;;;;;;;;5118436;27;20055;-64
2024/01/10 11:27:40;;;;;;;18.17;8.25;;;;;;;;;;5103941;27;20062;-65
2024/01/10 11:30:07;;;;;;;17.75;8.38;;;;;;;;;;5099964;27;20482;-65
2024/01/10 11:32:35;;;;;;;18.63;9.05;;;;;;;;;;5116767;27;20048;-65
2024/01/10 11:35:09;;;;;;;19.15;8.50;;;;;;;;;;5102997;28;20039;-65
2024/01/10 11:37:40;;;;;;;21.38;8.70;;;;;;;;;;5103556;27;20099;-64
2024/01/10 11:40:09;;;;;;;19.58;9.05;;;;;;;;;;5121576;27;20047;-65
2024/01/10 11:42:42;;;;;;;20.52;8.75;;;;;;;;;;5100885;27;20039;-64
2024/01/10 11:45:08;;;;;;;17.65;7.80;;;;;;;;;;5103355;27;20134;-65
2024/01/10 11:47:34;;;;;;;21.98;9.48;;;;;;;;;;5105289;27;20101;-65
2024/01/10 11:50:03;;;;;;;18.98;8.73;;;;;;;;;;5122379;27;20051;-65
2024/01/10 11:52:34;;;;;;;18.30;8.88;;;;;;;;;;5118550;27;20503;-65
2024/01/10 11:55:00;;;;;;;19.10;9.32;;;;;;;;;;5120266;27;20043;-65
2024/01/10 11:57:29;;;;;;;17.73;8.65;;;;;;;;;;5121324;27;20039;-65
2024/01/10 11:59:56;;;;;;;17.75;8.98;;;;;;;;;;5124412;27;20035;-65
2024/01/10 12:02:25;;;;;;;18.15;9.38;;;;;;;;;;5124167;27;20458;-65
2024/01/10 12:04:51;;;;;;;18.48;8.90;;;;;;;;;;5104443;27;20058;-65
2024/01/10 12:07:18;;;;;;;16.98;9.00;;;;;;;;;;5122326;27;20039;-65
2024/01/10 12:09:44;;;;;;;16.73;9.18;;;;;;;;;;5116888;27;20095;-65
2024/01/10 12:12:11;;;;;;;18.75;8.35;;;;;;;;;;5102682;27;20048;-65
2024/01/10 12:14:38;;;;;;;16.35;6.97;;;;;;;;;;5104444;27;20047;-65
2024/01/10 12:17:06;;;;;;;19.67;7.88;;;;;;;;;;5084180;27;20482;-64
2024/01/10 12:19:32;;;;;;;15.13;8.07;;;;;;;;;;5100210;27;20058;-64
2024/01/10 12:21:58;;;;;;;17.60;8.63;;;;;;;;;;5109885;27;20139;-64
2024/01/10 12:24:28;;;;;;;17.30;8.32;;;;;;;;;;5117707;27;20047;-65
2024/01/10 12:26:56;;;;;;;17.92;7.85;;;;;;;;;;5120616;27;20046;-64
2024/01/10 12:29:22;;;;;;;16.98;7.72;;;;;;;;;;5100607;27;20070;-64
2024/01/10 12:31:49;;;;;;;18.80;8.75;;;;;;;;;;5119434;27;20055;-64
2024/01/10 12:34:15;;;;;;;16.23;7.93;;;;;;;;;;5102941;27;20131;-65
2024/01/10 12:36:43;;;;;;;15.07;7.72;;;;;;;;;;5102337;27;20172;-65
2024/01/10 12:39:09;;;;;;;18.35;7.75;;;;;;;;;;5104987;27;20403;-70
2024/01/10 12:41:36;;;;;;;15.85;7.47;;;;;;;;;;5120558;27;20038;-65
2024/01/10 12:44:03;;;;;;;17.60;8.57;;;;;;;;;;5121785;27;20138;-64
2024/01/10 12:46:30;;;;;;;17.67;7.95;;;;;;;;;;5101881;27;20379;-64
2024/01/10 12:49:04;;;;;;;18.35;8.88;;;;;;;;;;5118467;27;20043;-63
2024/01/10 12:51:31;;;;;;;16.50;7.97;;;;;;;;;;5118453;27;20043;-65
2024/01/10 12:53:59;;;;;;;14.77;7.72;;;;;;;;;;5126043;27;20114;-65
2024/01/10 12:56:25;;;;;;;16.50;8.32;;;;;;;;;;5124290;27;20039;-65
2024/01/10 12:58:51;;;;;;;17.75;9.10;;;;;;;;;;5086546;27;20543;-65
2024/01/10 13:01:18;;;;;;;15.13;8.20;;;;;;;;;;5123576;27;20058;-65
2024/01/10 13:03:44;;;;;;;20.10;8.25;;;;;;;;;;5118190;27;20039;-65
2024/01/10 13:06:10;;;;;;;16.02;8.45;;;;;;;;;;5102859;27;20031;-65
2024/01/10 13:08:37;;;;;;;16.67;7.72;;;;;;;;;;5119012;27;20091;-65
2024/01/10 13:11:08;;;;;;;14.65;7.15;;;;;;;;;;5118590;27;20114;-65
2024/01/10 13:13:35;;;;;;;17.15;8.65;;;;;;;;;;5116720;27;20051;-65
2024/01/10 13:16:01;;;;;;;16.45;7.97;;;;;;;;;;5102120;27;20043;-65
2024/01/10 13:18:28;;;;;;;15.75;8.00;;;;;;;;;;5120242;27;20142;-65
2024/01/10 13:20:55;;;;;;;16.33;9.05;;;;;;;;;;5116924;27;20049;-65
2024/01/10 13:23:23;;;;;;;14.98;8.23;;;;;;;;;;5116329;27;20055;-65
2024/01/10 13:25:49;;;;;;;18.10;8.98;;;;;;;;;;5100143;28;20057;-65
2024/01/10 13:28:15;;;;;;;16.75;9.73;;;;;;;;;;5109811;27;20494;-65
2024/01/10 13:30:43;;;;;;;16.30;8.43;;;;;;;;;;5115871;27;21163;-65
2024/01/10 13:33:09;;;;;;;17.00;8.93;;;;;;;;;;5099713;27;20134;-64
2024/01/10 13:35:36;;;;;;;16.27;9.05;;;;;;;;;;5100446;28;20388;-64
2024/01/10 13:38:03;;;;;;;17.23;8.23;;;;;;;;;;5117928;27;22078;-64
2024/01/10 13:40:29;;;;;;;14.60;7.95;;;;;;;;;;5115414;27;20477;-65
2024/01/10 13:42:55;;;;;;;16.13;8.18;;;;;;;;;;5103508;27;20367;-65
2024/01/10 13:45:21;;;;;;;12.90;8.25;;;;;;;;;;5091486;28;20039;-65
2024/01/10 13:47:49;;;;;;;18.45;9.82;;;;;;;;;;5102310;27;20059;-71
2024/01/10 13:50:16;;;;;;;14.80;8.20;;;;;;;;;;5098413;27;20043;-66
2024/01/10 13:52:43;;;;;;;16.65;8.15;;;;;;;;;;5098210;27;20054;-66
2024/01/10 13:55:09;;;;;;;17.73;9.32;;;;;;;;;;5098420;28;20116;-65
2024/01/10 13:57:35;;;;;;;17.75;8.40;;;;;;;;;;5122948;27;20092;-66
2024/01/10 14:00:03;;;;;;;14.15;7.88;;;;;;;;;;5105684;28;20084;-66
2024/01/10 14:02:29;;;;;;;15.02;8.02;;;;;;;;;;5109461;27;21273;-65
2024/01/10 14:04:57;;;;;;;13.98;7.70;;;;;;;;;;5107223;27;20050;-65
2024/01/10 14:07:24;;;;;;;17.02;8.27;;;;;;;;;;5100559;27;20071;-65
2024/01/10 14:09:50;;;;;;;15.57;8.07;;;;;;;;;;5114876;27;20047;-64
2024/01/10 14:12:17;;;;;;;17.73;8.60;;;;;;;;;;5084308;28;20092;-65
2024/01/10 14:14:44;;;;;;;16.25;7.75;;;;;;;;;;5111212;27;20125;-65
2024/01/10 14:17:10;;;;;;;18.17;8.52;;;;;;;;;;5116305;27;20084;-65
2024/01/10 14:19:36;;;;;;;16.20;8.23;;;;;;;;;;5103058;28;20121;-65